Time;durP1;ratioP1;P1;durP2;ratioP2;P2;SDS_P1;SDS_P2;PMS_P1;PMS_P2;Temp;Humidity;BMP_temperature;BMP_pressure;BME280_temperature;BME280_humidity;BME280_pressure;Samples;Min_cycle;Max_cycle;Signal;HPM_P1;HPM_P2
2023/01/01 00:01:27;;;;;;;8.88;5.40;;;;;;;14.53;100.00;100894.59;5247921;28;20016;-65
2023/01/01 00:03:58;;;;;;;6.30;5.70;;;;;;;14.61;100.00;100885.03;5247349;28;20029;-64
2023/01/01 00:06:29;;;;;;;5.60;5.20;;;;;;;14.61;100.00;100894.00;5247830;28;20024;-65
2023/01/01 00:11:48;;;;;;;4.13;3.88;;;;;;;14.59;100.00;100881.78;5248504;28;20044;-65
2023/01/01 00:14:19;;;;;;;7.80;4.28;;;;;;;14.56;100.00;100863.34;5247574;28;20033;-64
2023/01/01 00:16:49;;;;;;;4.25;3.85;;;;;;;14.58;100.00;100889.13;5247920;28;20020;-64
2023/01/01 00:19:19;;;;;;;13.48;5.28;;;;;;;14.49;100.00;100902.50;5247629;28;20112;-64
2023/01/01 00:21:50;;;;;;;9.07;4.03;;;;;;;14.46;100.00;100899.53;5246148;28;20039;-65
2023/01/01 00:24:20;;;;;;;6.05;3.90;;;;;;;14.28;100.00;100883.84;5247097;28;20480;-65
2023/01/01 00:26:50;;;;;;;9.23;4.88;;;;;;;14.33;100.00;100890.06;5247330;28;20472;-65
2023/01/01 00:29:21;;;;;;;4.03;3.67;;;;;;;14.16;100.00;100887.69;5247126;28;20020;-66
2023/01/01 00:31:51;;;;;;;4.95;4.20;;;;;;;14.26;100.00;100894.19;5247150;28;20028;-65
2023/01/01 00:34:22;;;;;;;6.78;4.75;;;;;;;14.22;100.00;100884.97;5246785;28;20029;-65
2023/01/01 00:36:52;;;;;;;6.72;3.50;;;;;;;14.14;100.00;100887.19;5246558;28;20062;-64
2023/01/01 00:39:22;;;;;;;7.35;3.85;;;;;;;14.30;100.00;100919.69;5247450;28;20027;-64
2023/01/01 00:41:53;;;;;;;6.82;3.63;;;;;;;14.32;100.00;100910.19;5246910;28;20020;-64
2023/01/01 00:44:23;;;;;;;5.15;3.45;;;;;;;14.31;100.00;100910.47;5247081;28;20020;-63
2023/01/01 00:46:54;;;;;;;4.03;3.70;;;;;;;14.22;100.00;100933.84;5247049;28;20052;-63
2023/01/01 00:49:24;;;;;;;7.28;3.60;;;;;;;14.10;100.00;100896.97;5246897;28;20023;-62
2023/01/01 00:51:54;;;;;;;5.18;4.18;;;;;;;14.14;100.00;100881.75;5246465;28;20397;-63
2023/01/01 00:54:25;;;;;;;3.38;3.17;;;;;;;14.10;100.00;100898.88;5245564;28;20269;-64
2023/01/01 00:56:56;;;;;;;3.72;3.53;;;;;;;14.01;100.00;100903.25;5246823;28;20027;-64
2023/01/01 00:59:26;;;;;;;6.03;3.90;;;;;;;13.94;100.00;100906.25;5245749;28;20481;-64
2023/01/01 01:01:57;;;;;;;5.90;4.47;;;;;;;13.83;100.00;100905.50;5246517;28;20028;-64
2023/01/01 01:04:27;;;;;;;4.90;3.22;;;;;;;13.70;100.00;100892.50;5246689;28;20020;-64
2023/01/01 01:06:57;;;;;;;3.97;3.65;;;;;;;13.75;100.00;100913.41;5246450;28;20028;-64
2023/01/01 01:09:28;;;;;;;4.60;4.20;;;;;;;13.76;100.00;100925.88;5246604;28;20396;-64
2023/01/01 01:11:58;;;;;;;7.72;2.92;;;;;;;13.75;100.00;100921.53;5245913;28;20028;-64
2023/01/01 01:14:28;;;;;;;4.72;3.60;;;;;;;13.75;100.00;100916.09;5246236;28;20107;-64
2023/01/01 01:16:59;;;;;;;5.13;3.38;;;;;;;13.71;100.00;100898.75;5246045;28;20385;-64
2023/01/01 01:19:29;;;;;;;5.72;3.67;;;;;;;13.72;100.00;100887.63;5245829;28;20092;-64
2023/01/01 01:22:00;;;;;;;3.78;3.47;;;;;;;13.71;100.00;100896.03;5246872;28;20442;-64
2023/01/01 01:24:30;;;;;;;8.20;3.78;;;;;;;13.67;100.00;100898.47;5244949;28;20032;-64
2023/01/01 01:27:00;;;;;;;3.25;2.97;;;;;;;13.67;100.00;100905.81;5246450;28;20024;-63
2023/01/01 01:29:31;;;;;;;5.50;3.20;;;;;;;13.62;100.00;100911.25;5246367;28;20395;-64
2023/01/01 01:32:01;;;;;;;3.60;3.40;;;;;;;13.57;100.00;100903.13;5246253;28;20028;-64
2023/01/01 01:34:32;;;;;;;3.95;3.65;;;;;;;13.58;100.00;100910.16;5245772;28;20059;-64
2023/01/01 01:37:03;;;;;;;4.35;4.00;;;;;;;13.56;100.00;100920.50;5246108;28;20039;-64
2023/01/01 01:39:33;;;;;;;4.70;4.07;;;;;;;13.60;100.00;100945.97;5246164;28;20025;-63
2023/01/01 01:42:04;;;;;;;5.57;2.95;;;;;;;13.59;100.00;100930.78;5244562;28;20476;-64
2023/01/01 01:44:55;;;;;;;3.70;3.50;;;;;;;13.62;100.00;100922.09;5246046;28;20028;-63
2023/01/01 01:47:44;;;;;;;5.03;3.80;;;;;;;13.65;100.00;100954.94;5245943;28;20039;-64
2023/01/01 01:50:36;;;;;;;4.23;3.90;;;;;;;13.62;100.00;100933.75;5245897;28;20082;-64
2023/01/01 01:53:14;;;;;;;4.00;3.45;;;;;;;13.61;100.00;100937.56;5245565;28;20028;-64
2023/01/01 01:55:52;;;;;;;3.78;3.35;;;;;;;13.59;100.00;100938.91;5245864;28;20092;-64
2023/01/01 01:58:25;;;;;;;6.07;3.20;;;;;;;13.51;100.00;100949.25;5246051;28;20060;-63
2023/01/01 02:00:55;;;;;;;4.32;3.08;;;;;;;13.35;100.00;100914.28;5246084;28;20024;-63
2023/01/01 02:03:32;;;;;;;3.92;3.25;;;;;;;13.54;100.00;100976.94;5245454;28;20388;-66
2023/01/01 02:06:03;;;;;;;11.50;3.58;;;;;;;13.23;100.00;100933.56;5245691;28;20370;-64
2023/01/01 02:08:34;;;;;;;4.18;3.78;;;;;;;13.39;100.00;100972.31;5245795;28;20029;-64
2023/01/01 02:11:05;;;;;;;4.70;3.75;;;;;;;13.33;100.00;100982.34;5245829;28;20119;-64
2023/01/01 02:13:35;;;;;;;4.05;3.28;;;;;;;13.25;100.00;100977.50;5245241;28;20155;-64
2023/01/01 02:16:21;;;;;;;4.68;4.28;;;;;;;13.21;100.00;100979.09;5245637;28;20037;-66
2023/01/01 02:19:23;;;;;;;4.88;3.60;;;;;;;13.10;100.00;100980.16;5245488;28;20024;-65
2023/01/01 02:22:15;;;;;;;3.65;3.45;;;;;;;13.09;100.00;100962.25;5220218;28;20045;-66
2023/01/01 02:24:55;;;;;;;10.82;5.75;;;;;;;13.07;100.00;100967.13;5245274;28;20025;-64
2023/01/01 02:27:32;;;;;;;4.25;3.90;;;;;;;13.11;100.00;100977.16;5245675;28;20518;-64
2023/01/01 02:30:06;;;;;;;2.60;2.47;;;;;;;13.08;100.00;100966.03;5245575;28;20025;-64
2023/01/01 02:32:51;;;;;;;4.40;2.72;;;;;;;13.08;100.00;100966.03;5245085;28;20415;-64
2023/01/01 02:35:33;;;;;;;4.20;3.58;;;;;;;13.03;100.00;100966.84;5245032;28;20515;-64
2023/01/01 02:38:17;;;;;;;4.53;4.07;;;;;;;13.06;100.00;100968.22;5244248;28;20103;-64
2023/01/01 02:40:55;;;;;;;5.55;3.50;;;;;;;13.06;100.00;100979.06;5245906;28;20051;-64
2023/01/01 02:43:26;;;;;;;7.78;3.65;;;;;;;12.95;100.00;100967.41;5245408;28;20028;-64
2023/01/01 02:45:56;;;;;;;5.93;4.18;;;;;;;13.05;100.00;100950.31;5247819;28;20032;-64
2023/01/01 02:48:39;;;;;;;4.85;3.58;;;;;;;13.06;100.00;100969.03;5249727;28;20070;-65
2023/01/01 02:51:13;;;;;;;4.22;3.70;;;;;;;13.09;100.00;100984.75;5250134;28;20059;-64
2023/01/01 02:54:03;;;;;;;3.70;3.50;;;;;;;13.02;100.00;100972.53;5249418;28;20480;-65
2023/01/01 02:56:36;;;;;;;4.47;4.07;;;;;;;13.03;100.00;100979.59;5249326;28;20211;-64
2023/01/01 03:02:51;;;;;;;5.88;3.47;;;;;;;13.05;100.00;100997.22;5249133;28;20093;-64
2023/01/01 03:05:33;;;;;;;4.30;4.00;;;;;;;13.03;100.00;100976.88;5248124;28;20029;-64
2023/01/01 03:08:26;;;;;;;7.22;3.60;;;;;;;13.07;100.00;101000.47;5249446;28;20066;-64
2023/01/01 03:11:10;;;;;;;4.70;3.80;;;;;;;13.10;100.00;101005.34;5249834;28;20028;-64
2023/01/01 03:14:04;;;;;;;2.72;2.63;;;;;;;13.14;100.00;101002.94;5249357;28;20186;-64
2023/01/01 03:16:43;;;;;;;3.83;3.08;;;;;;;13.00;100.00;100953.00;5249630;28;20032;-64
2023/01/01 03:19:23;;;;;;;7.82;3.75;;;;;;;13.14;100.00;100997.50;5249450;28;20027;-68
2023/01/01 03:22:06;;;;;;;8.60;3.47;;;;;;;13.02;100.00;100973.34;5249012;28;20500;-64
2023/01/01 03:24:59;;;;;;;4.07;3.72;;;;;;;13.17;100.00;100999.72;5249070;28;20013;-64
2023/01/01 03:27:36;;;;;;;7.28;3.67;;;;;;;13.13;100.00;100993.97;5248737;28;20162;-64
2023/01/01 03:30:09;;;;;;;5.43;3.67;;;;;;;13.16;100.00;101003.50;5247907;28;20438;-64
2023/01/01 03:33:06;;;;;;;2.88;2.78;;;;;;;13.10;100.00;101007.25;5248393;28;20116;-64
2023/01/01 03:35:47;;;;;;;4.07;3.72;;;;;;;13.07;100.00;100996.94;5273392;22;20031;-66
2023/01/01 03:38:39;;;;;;;3.05;2.95;;;;;;;13.12;100.00;101008.63;5290437;28;20045;-65
2023/01/01 03:41:14;;;;;;;4.93;4.18;;;;;;;13.09;100.00;100992.06;5290649;28;20024;-65
2023/01/01 03:44:02;;;;;;;4.28;3.97;;;;;;;13.13;100.00;101012.97;5289811;28;20046;-66
2023/01/01 03:46:35;;;;;;;3.67;3.45;;;;;;;13.14;100.00;101025.44;5290269;28;20031;-66
2023/01/01 03:49:09;;;;;;;6.03;3.80;;;;;;;13.13;100.00;101029.22;5290172;28;20031;-66
2023/01/01 03:52:26;;;;;;;4.40;3.90;;;;;;;13.08;100.00;101037.34;5289845;28;20027;-67
2023/01/01 03:55:18;;;;;;;3.83;3.53;;;;;;;13.07;100.00;101021.34;5266585;28;20067;-67
2023/01/01 03:58:12;;;;;;;3.58;3.45;;;;;;;13.02;100.00;101022.16;5289586;28;20049;-66
2023/01/01 04:01:19;;;;;;;11.00;3.75;;;;;;;12.93;100.00;101029.19;5288587;28;20522;-65
2023/01/01 04:03:50;;;;;;;10.35;4.63;;;;;;;12.75;100.00;101027.78;5287661;28;20047;-66
2023/01/01 04:06:21;;;;;;;4.07;3.75;;;;;;;12.77;100.00;101033.75;5290166;28;20421;-66
2023/01/01 04:08:57;;;;;;;4.55;4.10;;;;;;;12.77;100.00;101009.34;5289764;28;20023;-66
2023/01/01 04:14:33;;;;;;;8.07;5.10;;;;;;;12.78;100.00;101042.69;5289623;28;20114;-67
2023/01/01 04:17:06;;;;;;;5.95;4.53;;;;;;;12.76;100.00;101051.09;5289587;28;20024;-66
2023/01/01 04:19:37;;;;;;;4.10;2.97;;;;;;;12.72;100.00;101031.00;5289546;28;20026;-66
2023/01/01 04:22:07;;;;;;;4.60;4.20;;;;;;;12.64;100.00;101042.38;5289080;27;20020;-66
2023/01/01 04:24:37;;;;;;;4.78;4.35;;;;;;;12.66;100.00;101042.13;5288952;28;20027;-66
2023/01/01 04:27:08;;;;;;;7.90;4.57;;;;;;;12.65;100.00;101037.78;5289354;28;20015;-66
2023/01/01 04:29:40;;;;;;;3.55;3.00;;;;;;;12.69;100.00;101050.53;5287963;28;20471;-66
2023/01/01 04:32:11;;;;;;;4.28;3.97;;;;;;;12.70;100.00;101044.03;5289015;28;20043;-67
2023/01/01 04:34:41;;;;;;;9.75;5.13;;;;;;;12.65;100.00;101046.72;5288839;28;20051;-69
2023/01/01 04:37:11;;;;;;;5.25;4.88;;;;;;;12.63;100.00;101037.22;5289381;28;20118;-66
2023/01/01 04:39:42;;;;;;;2.95;2.78;;;;;;;12.60;100.00;101041.28;5289336;28;20034;-66
2023/01/01 04:42:12;;;;;;;4.90;4.45;;;;;;;12.57;100.00;101046.41;5289202;28;20125;-66
2023/01/01 04:44:43;;;;;;;4.30;4.05;;;;;;;12.59;100.00;101061.31;5288669;28;20051;-66
2023/01/01 04:47:13;;;;;;;4.03;3.70;;;;;;;12.61;100.00;101055.63;5289440;28;20029;-66
2023/01/01 04:49:43;;;;;;;7.80;4.78;;;;;;;12.60;100.00;101068.38;5288856;27;20487;-66
2023/01/01 04:52:14;;;;;;;7.15;5.05;;;;;;;12.50;100.00;101055.59;5288560;28;20095;-66
2023/01/01 04:54:44;;;;;;;7.90;4.85;;;;;;;12.63;100.00;101096.84;5287379;28;20052;-66
2023/01/01 04:57:15;;;;;;;4.30;4.00;;;;;;;12.64;100.00;101093.88;5288833;28;20026;-66
2023/01/01 04:59:45;;;;;;;4.43;4.05;;;;;;;12.55;100.00;101064.81;5288699;28;20031;-66
2023/01/01 05:02:15;;;;;;;4.70;4.28;;;;;;;12.70;100.00;101081.16;5288503;28;20045;-66
2023/01/01 05:04:46;;;;;;;4.50;4.07;;;;;;;12.66;100.00;101083.56;5288577;27;20071;-66
2023/01/01 05:07:16;;;;;;;4.15;3.95;;;;;;;12.63;100.00;101083.28;5288181;28;20023;-67
2023/01/01 05:09:47;;;;;;;4.70;4.40;;;;;;;12.60;100.00;101094.66;5288299;28;20019;-67
2023/01/01 05:12:17;;;;;;;3.85;3.58;;;;;;;12.66;100.00;101096.31;5288627;28;20020;-67
2023/01/01 05:14:47;;;;;;;12.43;4.53;;;;;;;12.68;100.00;101116.66;5288306;28;20020;-67
2023/01/01 05:17:18;;;;;;;5.65;3.85;;;;;;;12.70;100.00;101116.38;5288609;28;20051;-67
2023/01/01 05:19:48;;;;;;;3.40;3.22;;;;;;;12.72;100.00;101120.44;5288461;28;20020;-66
2023/01/01 05:22:18;;;;;;;7.22;4.55;;;;;;;12.71;100.00;101115.28;5287865;28;20019;-66
2023/01/01 05:24:49;;;;;;;4.03;3.75;;;;;;;12.74;100.00;101117.47;5288326;28;20019;-66
2023/01/01 05:27:19;;;;;;;4.55;3.45;;;;;;;12.75;100.00;101119.09;5288666;28;20084;-66
2023/01/01 05:29:49;;;;;;;4.53;4.18;;;;;;;12.78;100.00;101132.94;5288018;28;20030;-66
2023/01/01 05:32:20;;;;;;;4.18;3.45;;;;;;;12.80;100.00;101136.19;5287757;28;20027;-66
2023/01/01 05:34:51;;;;;;;4.35;4.00;;;;;;;12.78;100.00;101135.63;5288226;28;20490;-66
2023/01/01 05:37:22;;;;;;;3.38;3.00;;;;;;;12.76;100.00;101135.09;5288224;28;20059;-68
2023/01/01 05:39:52;;;;;;;4.43;4.05;;;;;;;12.66;100.00;101129.63;5288137;28;20047;-67
2023/01/01 05:42:23;;;;;;;4.15;3.85;;;;;;;12.74;100.00;101148.09;5287560;28;20068;-67
2023/01/01 05:44:53;;;;;;;3.75;3.47;;;;;;;12.75;100.00;101167.88;5287714;28;20024;-66
2023/01/01 05:47:23;;;;;;;6.55;4.20;;;;;;;12.67;100.00;101152.94;5288060;28;20433;-66
2023/01/01 05:49:54;;;;;;;8.15;4.10;;;;;;;12.78;100.00;101162.75;5287695;28;20074;-67
2023/01/01 05:52:24;;;;;;;7.97;6.03;;;;;;;12.77;100.00;101163.00;5287667;28;20028;-66
2023/01/01 05:54:54;;;;;;;3.72;3.47;;;;;;;12.76;100.00;101154.06;5288038;28;20050;-66
2023/01/01 05:57:26;;;;;;;7.38;4.00;;;;;;;12.75;100.00;101155.13;5286209;28;20069;-67
2023/01/01 05:59:57;;;;;;;5.95;3.40;;;;;;;12.73;100.00;101162.72;5288145;28;20371;-65
2023/01/01 06:02:30;;;;;;;4.60;4.25;;;;;;;12.64;100.00;101156.19;5287286;28;20106;-67
2023/01/01 06:05:00;;;;;;;4.65;4.25;;;;;;;12.69;100.00;101168.94;5286530;28;20531;-66
2023/01/01 06:07:30;;;;;;;4.78;4.32;;;;;;;12.69;100.00;101167.06;5287683;28;20098;-66
2023/01/01 06:10:02;;;;;;;5.53;5.05;;;;;;;12.67;100.00;101161.06;5287572;28;20382;-66
2023/01/01 06:12:32;;;;;;;4.15;3.50;;;;;;;12.68;100.00;101173.53;5285702;28;20452;-66
2023/01/01 06:15:03;;;;;;;5.93;4.78;;;;;;;12.66;100.00;101196.56;5287713;28;20054;-66
2023/01/01 06:17:33;;;;;;;7.78;4.28;;;;;;;12.63;100.00;101197.91;5287564;28;20102;-67
2023/01/01 06:20:04;;;;;;;7.38;4.03;;;;;;;12.50;100.00;101199.16;5288812;28;20026;-66
2023/01/01 06:22:36;;;;;;;3.85;3.05;;;;;;;12.55;100.00;101222.75;5291519;28;20038;-67
2023/01/01 06:25:07;;;;;;;6.45;4.28;;;;;;;12.39;100.00;101202.88;5291846;28;20102;-67
2023/01/01 06:27:38;;;;;;;3.28;3.08;;;;;;;12.40;100.00;101230.78;5291703;28;20384;-66
2023/01/01 06:30:08;;;;;;;3.25;3.15;;;;;;;12.26;100.00;101246.63;5291975;28;20020;-66
2023/01/01 06:32:39;;;;;;;3.60;3.25;;;;;;;12.16;100.00;101258.19;5289933;28;20475;-67
2023/01/01 06:35:09;;;;;;;6.35;4.70;;;;;;;11.97;100.00;101280.47;5291746;28;20173;-67
2023/01/01 06:37:39;;;;;;;5.53;4.53;;;;;;;11.64;100.00;101270.59;5291659;28;20498;-67
2023/01/01 06:40:10;;;;;;;5.20;3.92;;;;;;;11.38;100.00;101294.63;5292029;28;20069;-67
2023/01/01 06:42:40;;;;;;;4.43;3.78;;;;;;;11.13;100.00;101292.41;5291224;28;20368;-69
2023/01/01 06:45:12;;;;;;;7.70;4.50;;;;;;;10.97;100.00;101279.72;5291316;28;20057;-68
2023/01/01 06:47:42;;;;;;;3.75;3.50;;;;;;;10.85;100.00;101275.50;5290106;28;20023;-67
2023/01/01 06:50:12;;;;;;;10.93;5.05;;;;;;;10.76;100.00;101292.13;5291418;28;20038;-68
2023/01/01 06:52:43;;;;;;;4.30;4.00;;;;;;;10.68;100.00;101286.31;5290834;28;20019;-69
2023/01/01 06:55:13;;;;;;;4.30;3.92;;;;;;;10.64;100.00;101304.91;5290097;28;20031;-69
2023/01/01 06:57:44;;;;;;;3.70;3.53;;;;;;;10.60;100.00;101292.13;5291080;28;20064;-68
2023/01/01 07:00:14;;;;;;;4.20;3.85;;;;;;;10.53;100.00;101277.97;5291108;28;20532;-68
2023/01/01 07:02:47;;;;;;;3.85;3.55;;;;;;;10.52;100.00;101285.25;5289258;28;20364;-68
2023/01/01 07:05:17;;;;;;;4.30;3.95;;;;;;;10.51;100.00;101289.00;5291001;28;20031;-68
2023/01/01 07:07:47;;;;;;;3.90;3.63;;;;;;;10.51;100.00;101285.50;5291044;28;20364;-69
2023/01/01 07:10:18;;;;;;;6.38;4.28;;;;;;;10.43;100.00;101274.03;5290973;28;20035;-68
2023/01/01 07:12:48;;;;;;;8.52;3.58;;;;;;;10.54;100.00;101298.50;5290366;28;20019;-68
2023/01/01 07:15:18;;;;;;;10.18;4.10;;;;;;;10.54;100.00;101298.50;5291213;28;20055;-68
2023/01/01 07:17:49;;;;;;;10.82;3.65;;;;;;;10.55;100.00;101305.53;5291018;28;20023;-68
2023/01/01 07:20:19;;;;;;;8.40;3.83;;;;;;;10.55;100.00;101314.47;5291148;28;20072;-68
2023/01/01 07:22:49;;;;;;;4.00;3.67;;;;;;;10.56;100.00;101309.88;5290506;28;20099;-67
2023/01/01 07:25:20;;;;;;;5.05;4.13;;;;;;;10.55;100.00;101309.06;5289575;28;20023;-67
2023/01/01 07:27:50;;;;;;;2.72;2.63;;;;;;;10.56;100.00;101318.81;5290681;28;20161;-67
2023/01/01 07:30:20;;;;;;;4.57;3.65;;;;;;;10.57;100.00;101325.03;5290314;28;20026;-67
2023/01/01 07:32:54;;;;;;;3.45;3.25;;;;;;;10.57;100.00;101325.03;5289072;28;20020;-67
2023/01/01 07:35:25;;;;;;;5.70;5.28;;;;;;;10.54;100.00;101334.44;5290351;28;20046;-67
2023/01/01 07:37:55;;;;;;;4.75;4.38;;;;;;;10.54;100.00;101339.84;5290820;28;20019;-68
2023/01/01 07:40:26;;;;;;;6.30;5.05;;;;;;;10.52;100.00;101336.56;5290883;28;20030;-68
2023/01/01 07:42:56;;;;;;;4.57;4.30;;;;;;;10.50;100.00;101333.28;5290417;28;20058;-67
2023/01/01 07:45:27;;;;;;;4.30;3.72;;;;;;;10.43;100.00;101336.13;5290366;28;20026;-68
2023/01/01 07:47:58;;;;;;;5.50;5.10;;;;;;;10.35;100.00;101333.84;5290239;28;20508;-68
2023/01/01 07:50:31;;;;;;;4.07;3.50;;;;;;;10.35;100.00;101344.66;5289078;28;20032;-68
2023/01/01 07:53:01;;;;;;;5.15;4.68;;;;;;;10.34;100.00;101363.78;5290084;28;20098;-68
2023/01/01 07:55:35;;;;;;;7.30;4.47;;;;;;;10.23;100.00;101357.38;5290003;28;20400;-69
2023/01/01 07:58:06;;;;;;;6.88;4.40;;;;;;;10.28;100.00;101370.13;5289992;28;20501;-69
2023/01/01 08:00:36;;;;;;;8.30;4.45;;;;;;;10.21;100.00;101361.34;5290847;28;20094;-68
2023/01/01 08:03:08;;;;;;;4.20;3.85;;;;;;;10.10;100.00;101363.84;5288727;28;20053;-68
2023/01/01 08:05:39;;;;;;;7.43;3.25;;;;;;;9.87;100.00;101328.84;5290362;28;20498;-69
2023/01/01 08:08:10;;;;;;;3.33;3.10;;;;;;;9.98;100.00;101363.06;5290086;28;20027;-68
2023/01/01 08:10:40;;;;;;;4.38;4.15;;;;;;;9.99;100.00;101362.00;5289946;28;20051;-69
2023/01/01 08:13:11;;;;;;;4.65;4.00;;;;;;;10.03;100.00;101373.13;5289822;28;20051;-68
2023/01/01 08:15:41;;;;;;;5.22;4.97;;;;;;;10.15;100.00;101369.31;5289995;28;20072;-68
2023/01/01 08:18:12;;;;;;;4.43;4.03;;;;;;;10.25;100.00;101371.44;5290228;28;20207;-69
2023/01/01 08:20:42;;;;;;;10.20;5.30;;;;;;;10.27;100.00;101379.28;5290065;28;20054;-69
2023/01/01 08:23:12;;;;;;;5.25;4.70;;;;;;;10.39;100.00;101388.19;5289623;28;20034;-69
2023/01/01 08:25:43;;;;;;;5.55;5.13;;;;;;;10.46;100.00;101396.94;5289596;28;20020;-69
2023/01/01 08:28:13;;;;;;;4.50;4.10;;;;;;;10.54;100.00;101410.03;5289851;28;20024;-68
2023/01/01 08:30:44;;;;;;;7.47;4.93;;;;;;;10.66;100.00;101408.13;5289327;28;20275;-68
2023/01/01 08:33:14;;;;;;;9.55;3.80;;;;;;;10.78;100.00;101398.03;5289426;28;20024;-68
2023/01/01 08:35:44;;;;;;;4.80;4.40;;;;;;;10.85;100.00;101394.38;5289261;28;20039;-67
2023/01/01 08:38:15;;;;;;;5.47;4.93;;;;;;;10.81;100.00;101402.97;5288402;28;20027;-68
2023/01/01 08:40:45;;;;;;;4.60;3.95;;;;;;;10.78;100.00;101403.44;5288238;28;20028;-69
2023/01/01 08:43:15;;;;;;;8.40;4.15;;;;;;;10.74;100.00;101406.88;5275528;28;20016;-69
2023/01/01 08:45:46;;;;;;;6.22;5.38;;;;;;;10.76;100.00;101413.69;5288172;28;20076;-69
2023/01/01 08:48:16;;;;;;;5.38;4.88;;;;;;;10.70;100.00;101411.94;5289191;28;20051;-69
2023/01/01 08:51:01;;;;;;;12.45;6.10;;;;;;;10.79;100.00;101413.19;5288621;28;20038;-69
2023/01/01 08:53:32;;;;;;;6.90;4.88;;;;;;;10.81;100.00;101424.59;5289616;28;20015;-69
2023/01/01 08:56:07;;;;;;;6.50;5.90;;;;;;;10.85;100.00;101426.78;5289369;28;20028;-68
2023/01/01 08:58:39;;;;;;;6.32;5.90;;;;;;;10.64;100.00;101391.34;5288822;28;20415;-70
2023/01/01 09:01:10;;;;;;;4.57;4.25;;;;;;;10.90;100.00;101422.31;5289193;28;20027;-69
2023/01/01 09:03:41;;;;;;;9.65;4.97;;;;;;;10.92;100.00;101412.06;5286885;28;20131;-69
2023/01/01 09:06:12;;;;;;;7.82;4.93;;;;;;;10.99;100.00;101425.41;5289149;28;20027;-69
2023/01/01 09:08:42;;;;;;;5.90;4.50;;;;;;;11.00;100.00;101419.75;5287339;28;20043;-67
2023/01/01 09:11:48;;;;;;;4.60;4.00;;;;;;;11.09;100.00;101441.81;5288574;28;20467;-68
2023/01/01 09:14:19;;;;;;;7.72;5.43;;;;;;;11.04;100.00;101444.41;5288720;28;20030;-69
2023/01/01 09:16:49;;;;;;;5.70;5.25;;;;;;;11.07;100.00;101455.56;5289073;28;20024;-67
2023/01/01 09:19:20;;;;;;;5.53;5.00;;;;;;;11.06;100.00;101451.22;5288760;28;20058;-68
2023/01/01 09:21:51;;;;;;;4.25;3.92;;;;;;;11.10;100.00;101459.66;5288360;28;20024;-68
2023/01/01 09:24:21;;;;;;;12.70;4.53;;;;;;;11.05;100.00;101456.88;5288256;28;20023;-68
2023/01/01 09:26:52;;;;;;;7.80;4.95;;;;;;;11.18;100.00;101467.38;5288430;28;20023;-68
2023/01/01 09:29:22;;;;;;;5.28;4.85;;;;;;;11.23;100.00;101463.94;5288453;28;20073;-68
2023/01/01 09:31:54;;;;;;;5.63;5.22;;;;;;;11.26;100.00;101463.44;5286800;28;20051;-68
2023/01/01 09:34:24;;;;;;;5.88;5.07;;;;;;;11.28;100.00;101461.28;5288627;28;20027;-68
2023/01/01 09:36:54;;;;;;;7.63;4.68;;;;;;;11.30;100.00;101459.97;5288420;22;20452;-63
2023/01/01 09:39:25;;;;;;;8.15;6.20;;;;;;;11.29;100.00;101460.22;5279824;28;20020;-64
2023/01/01 09:42:13;;;;;;;6.63;4.57;;;;;;;11.24;100.00;101466.41;5285246;28;20118;-63
2023/01/01 09:45:20;;;;;;;5.40;4.38;;;;;;;11.25;100.00;101470.75;5286276;28;20238;-64
2023/01/01 09:48:05;;;;;;;11.10;5.10;;;;;;;11.27;100.00;101468.59;5288421;28;20028;-65
2023/01/01 09:50:44;;;;;;;7.93;5.70;;;;;;;11.23;100.00;101451.25;5289428;28;20119;-64
2023/01/01 09:53:50;;;;;;;7.30;4.60;;;;;;;11.32;100.00;101482.19;5288049;28;20027;-65
2023/01/01 09:56:26;;;;;;;5.32;4.82;;;;;;;11.35;100.00;101476.28;5285891;28;20507;-65
2023/01/01 09:58:58;;;;;;;4.93;4.60;;;;;;;11.36;100.00;101483.34;5287828;28;20031;-63
2023/01/01 10:02:22;;;;;;;5.35;4.90;;;;;;;11.37;100.00;101473.34;5286633;28;20023;-64
2023/01/01 10:05:29;;;;;;;5.35;4.82;;;;;;;11.44;100.00;101482.94;5243122;28;20032;-64
2023/01/01 10:08:04;;;;;;;6.82;5.72;;;;;;;11.49;100.00;101460.56;5288142;28;20028;-65
2023/01/01 10:10:40;;;;;;;9.60;5.40;;;;;;;11.54;100.00;101473.34;5287677;28;20024;-65
2023/01/01 10:13:42;;;;;;;11.40;5.13;;;;;;;11.58;100.00;101477.19;5287530;28;20386;-64
2023/01/01 10:16:27;;;;;;;6.50;4.78;;;;;;;11.63;100.00;101478.06;5287608;28;20490;-65
2023/01/01 10:19:04;;;;;;;7.95;4.03;;;;;;;11.65;100.00;101475.94;5287672;28;20043;-65
2023/01/01 10:21:39;;;;;;;6.47;4.43;;;;;;;11.73;100.00;101480.94;5287914;28;20391;-64
2023/01/01 10:24:18;;;;;;;9.02;5.78;;;;;;;11.78;100.00;101491.88;5287171;28;20027;-64
2023/01/01 10:26:52;;;;;;;12.32;5.18;;;;;;;11.78;100.00;101491.06;5287826;28;20102;-64
2023/01/01 10:29:31;;;;;;;10.52;4.38;;;;;;;11.87;100.00;101500.38;5287618;28;20024;-63
2023/01/01 10:32:32;;;;;;;10.10;6.68;;;;;;;11.91;100.00;101484.47;5287501;28;20038;-66
2023/01/01 10:35:12;;;;;;;9.25;5.93;;;;;;;12.11;100.00;101493.69;5286975;28;20036;-63
2023/01/01 10:37:43;;;;;;;6.75;4.80;;;;;;;12.23;100.00;101487.31;5286998;28;20026;-65
2023/01/01 10:40:20;;;;;;;8.55;4.45;;;;;;;12.29;100.00;101483.63;5287557;28;20479;-65
2023/01/01 10:42:58;;;;;;;6.38;4.70;;;;;;;12.36;100.00;101485.06;5287406;28;20148;-65
2023/01/01 10:45:35;;;;;;;4.28;3.90;;;;;;;12.43;100.00;101484.84;5287520;28;20023;-65
2023/01/01 10:48:10;;;;;;;4.70;3.85;;;;;;;12.50;100.00;101471.94;5287636;28;20038;-65
2023/01/01 10:50:58;;;;;;;5.65;4.70;;;;;;;12.59;100.00;101483.16;5287363;28;20024;-66
2023/01/01 10:53:38;;;;;;;5.80;5.32;;;;;;;12.69;100.00;101500.34;5287079;28;20483;-64
2023/01/01 10:56:14;;;;;;;7.65;5.05;;;;;;;12.82;100.00;101504.53;5287694;28;20119;-65
2023/01/01 10:58:55;;;;;;;7.88;4.55;;;;;;;12.96;100.00;101505.78;5287175;28;20023;-64
2023/01/01 11:01:32;;;;;;;7.47;4.30;;;;;;;13.07;100.00;101507.50;5285968;28;20051;-65
2023/01/01 11:04:18;;;;;;;10.27;4.88;;;;;;;13.14;100.00;101504.59;5285546;28;20065;-65
2023/01/01 11:06:48;;;;;;;5.40;4.35;;;;;;;13.16;100.00;101513.31;5289635;28;20463;-66
2023/01/01 11:09:28;;;;;;;6.28;3.67;;;;;;;13.22;100.00;101517.72;5290977;28;20122;-65
2023/01/01 11:12:03;;;;;;;4.72;4.32;;;;;;;13.20;100.00;101510.91;5291002;28;20028;-67
2023/01/01 11:14:40;;;;;;;9.77;5.13;;;;;;;13.18;100.00;101513.88;5291148;28;20024;-65
2023/01/01 11:17:11;;;;;;;8.65;5.20;;;;;;;13.14;100.00;101507.31;5291068;28;20024;-64
2023/01/01 11:19:41;;;;;;;19.40;3.90;;;;;;;13.12;100.00;101509.44;5291023;28;20072;-65
2023/01/01 11:22:45;;;;;;;3.40;3.20;;;;;;;13.14;100.00;101502.69;5290091;28;20041;-66
2023/01/01 11:25:19;;;;;;;8.68;4.03;;;;;;;13.16;100.00;101510.59;5289680;28;20038;-65
2023/01/01 11:27:50;;;;;;;6.57;4.03;;;;;;;12.98;100.00;101473.00;5290970;28;20061;-65
2023/01/01 11:30:26;;;;;;;11.23;4.43;;;;;;;13.02;100.00;101479.50;5290710;28;20019;-65
2023/01/01 11:33:00;;;;;;;16.92;5.50;;;;;;;13.23;100.00;101488.69;5290660;28;20107;-65
2023/01/01 11:35:47;;;;;;;4.22;3.75;;;;;;;13.28;100.00;101481.41;5290410;28;20039;-64
2023/01/01 11:38:19;;;;;;;5.95;4.15;;;;;;;13.30;100.00;101483.84;5290612;28;20034;-65
2023/01/01 11:41:03;;;;;;;7.30;4.47;;;;;;;13.29;100.00;101487.66;5290673;28;20084;-65
2023/01/01 11:43:40;;;;;;;5.82;4.53;;;;;;;13.32;100.00;101490.66;5290537;28;20039;-64
2023/01/01 11:46:21;;;;;;;8.52;4.70;;;;;;;13.31;100.00;101496.34;5290603;28;20035;-65
2023/01/01 11:48:52;;;;;;;7.30;4.50;;;;;;;13.25;100.00;101492.78;5289913;28;20038;-65
2023/01/01 11:51:32;;;;;;;9.23;5.43;;;;;;;13.15;100.00;101474.53;5290156;27;20538;-64
2023/01/01 11:54:34;;;;;;;5.72;3.72;;;;;;;12.86;100.00;101446.03;5288734;28;20032;-65
2023/01/01 11:57:15;;;;;;;6.10;4.38;;;;;;;13.34;100.00;101504.78;5289073;28;20019;-66
2023/01/01 11:59:52;;;;;;;4.78;3.55;;;;;;;13.34;100.00;101483.09;5290194;28;20023;-67
2023/01/01 12:02:39;;;;;;;5.53;5.00;;;;;;;13.36;100.00;101483.66;5290078;28;20026;-65